createdAt,value
2023-01-03T00:01:48.984Z,99.90
2023-01-03T00:03:52.932Z,99.90
2023-01-03T00:05:55.065Z,99.90
2023-01-03T00:07:57.648Z,99.90
2023-01-03T00:10:08.365Z,99.90
2023-01-03T00:12:30.504Z,99.90
2023-01-03T00:14:36.977Z,99.90
2023-01-03T00:16:39.001Z,99.90
2023-01-03T00:18:40.744Z,99.90
2023-01-03T00:20:42.978Z,99.90
2023-01-03T00:22:44.700Z,98.00
2023-01-03T00:24:48.409Z,98.10
2023-01-03T00:26:50.153Z,97.10
2023-01-03T00:28:51.810Z,94.80
2023-01-03T00:30:53.508Z,95.30
2023-01-03T00:32:55.376Z,95.00
2023-01-03T00:35:01.593Z,97.80
2023-01-03T00:37:06.755Z,99.90
2023-01-03T00:39:08.647Z,99.90
2023-01-03T00:41:13.377Z,95.90
2023-01-03T00:43:29.994Z,90.90
2023-01-03T00:45:35.324Z,88.90
2023-01-03T00:47:37.862Z,83.50
2023-01-03T00:49:39.626Z,91.60
2023-01-03T00:51:42.025Z,86.90
2023-01-03T00:53:45.979Z,81.90
2023-01-03T00:55:48.339Z,82.70
2023-01-03T00:57:50.076Z,81.10
2023-01-03T00:59:51.809Z,82.60
2023-01-03T01:01:56.738Z,82.50
2023-01-03T01:04:08.284Z,59.00
2023-01-03T01:06:23.060Z,58.20
2023-01-03T01:08:24.781Z,48.50
2023-01-03T01:10:26.424Z,53.30
2023-01-03T01:12:28.144Z,60.70
2023-01-03T01:14:30.798Z,65.30
2023-01-03T01:16:32.837Z,67.00
2023-01-03T01:18:35.707Z,62.80
2023-01-03T01:20:40.210Z,62.40
2023-01-03T01:22:41.955Z,62.70
2023-01-03T01:24:43.700Z,62.90
2023-01-03T01:26:46.786Z,65.00
2023-01-03T01:28:49.621Z,62.20
2023-01-03T01:30:51.378Z,65.50
2023-01-03T01:32:53.098Z,66.30
2023-01-03T01:34:55.105Z,68.00
2023-01-03T01:36:57.200Z,65.80
2023-01-03T01:39:05.070Z,59.80
2023-01-03T01:41:06.866Z,61.90
2023-01-03T01:43:39.764Z,59.40
2023-01-03T01:45:41.444Z,62.50
2023-01-03T01:48:12.212Z,57.60
2023-01-03T01:50:36.992Z,54.40
2023-01-03T01:52:42.689Z,50.60
2023-01-03T01:54:44.569Z,57.00
2023-01-03T01:56:51.660Z,60.00
2023-01-03T01:58:55.190Z,73.20
2023-01-03T02:00:58.263Z,83.20
2023-01-03T02:03:00.597Z,90.40
2023-01-03T02:05:06.767Z,91.00
2023-01-03T02:07:08.584Z,91.10
2023-01-03T02:09:10.261Z,91.10
2023-01-03T02:11:15.005Z,91.90
2023-01-03T02:13:28.149Z,91.90
2023-01-03T02:15:41.836Z,79.90
2023-01-03T02:17:43.681Z,71.70
2023-01-03T02:20:12.678Z,76.20
2023-01-03T02:22:20.207Z,67.10
2023-01-03T02:24:30.839Z,50.70
2023-01-03T02:27:04.762Z,51.70
2023-01-03T02:29:17.050Z,50.30
2023-01-03T02:31:38.261Z,44.10
2023-01-03T02:33:53.282Z,48.30
2023-01-03T02:36:36.017Z,48.30
2023-01-03T02:38:48.046Z,47.10
2023-01-03T02:41:45.558Z,44.30
2023-01-03T02:43:52.342Z,46.00
2023-01-03T02:46:16.601Z,47.80
2023-01-03T02:48:34.363Z,57.50
2023-01-03T02:50:51.462Z,65.60
2023-01-03T02:52:56.831Z,70.50
2023-01-03T02:55:05.200Z,85.60
2023-01-03T02:57:11.881Z,93.70
2023-01-03T02:59:17.896Z,99.90
2023-01-03T03:01:20.754Z,99.90
2023-01-03T03:03:26.441Z,99.90
2023-01-03T03:05:36.108Z,99.90
2023-01-03T03:07:39.396Z,99.90
2023-01-03T03:09:59.746Z,99.90
2023-01-03T03:12:22.253Z,99.90
2023-01-03T03:14:39.697Z,99.90
2023-01-03T03:16:48.507Z,99.90
2023-01-03T03:19:02.189Z,99.90
2023-01-03T03:21:24.651Z,99.90
2023-01-03T03:23:49.344Z,99.90
2023-01-03T03:25:54.907Z,99.90
2023-01-03T03:28:31.973Z,99.90
2023-01-03T03:30:37.630Z,99.90
2023-01-03T03:32:43.142Z,99.90
2023-01-03T03:34:46.759Z,99.90
2023-01-03T03:36:51.704Z,99.90
2023-01-03T03:38:53.735Z,99.90
2023-01-03T03:41:59.460Z,99.90
2023-01-03T03:44:40.722Z,99.90
2023-01-03T03:46:54.214Z,99.90
2023-01-03T03:49:34.639Z,99.90
2023-01-03T03:51:37.815Z,99.90
2023-01-03T03:53:42.561Z,99.90
2023-01-03T03:55:51.672Z,99.90
2023-01-03T03:58:09.264Z,99.90
2023-01-03T04:00:19.828Z,99.90
2023-01-03T04:02:24.101Z,99.90
2023-01-03T04:04:32.121Z,99.90
2023-01-03T04:06:45.687Z,99.90
2023-01-03T04:08:47.545Z,99.90
2023-01-03T04:10:50.022Z,99.90
2023-01-03T04:12:52.684Z,99.90
2023-01-03T04:14:54.586Z,99.90
2023-01-03T04:16:56.390Z,99.90
2023-01-03T04:18:58.321Z,99.90
2023-01-03T04:21:00.171Z,99.90
2023-01-03T04:23:01.816Z,99.90
2023-01-03T04:25:03.951Z,99.90
2023-01-03T04:27:05.680Z,99.90
2023-01-03T04:29:07.456Z,99.90
2023-01-03T04:31:09.238Z,99.90
2023-01-03T04:33:11.385Z,99.90
2023-01-03T04:35:13.326Z,99.90
2023-01-03T04:37:15.054Z,99.90
2023-01-03T04:39:16.772Z,99.90
2023-01-03T04:41:18.605Z,99.90
2023-01-03T04:43:38.861Z,99.90
2023-01-03T04:45:40.656Z,99.90
2023-01-03T04:47:42.386Z,99.90
2023-01-03T04:49:46.404Z,99.90
2023-01-03T04:51:48.261Z,99.90
2023-01-03T04:53:49.933Z,99.90
2023-01-03T04:55:53.623Z,99.90
2023-01-03T04:57:55.261Z,99.90
2023-01-03T04:59:57.290Z,99.90
2023-01-03T05:01:59.275Z,99.90
2023-01-03T05:04:02.306Z,99.90
2023-01-03T05:06:07.802Z,99.90
2023-01-03T05:08:11.500Z,99.90
2023-01-03T05:10:20.662Z,99.90
2023-01-03T05:12:22.634Z,99.90
2023-01-03T05:14:24.333Z,99.90
2023-01-03T05:16:26.175Z,99.90
2023-01-03T05:18:27.948Z,99.90
2023-01-03T05:20:48.466Z,99.90
2023-01-03T05:23:08.611Z,99.90
2023-01-03T05:25:29.380Z,99.90
2023-01-03T05:27:31.392Z,99.90
2023-01-03T05:29:36.495Z,99.90
2023-01-03T05:31:38.433Z,99.90
2023-01-03T05:33:40.860Z,99.90
2023-01-03T05:35:46.495Z,99.90
2023-01-03T05:37:48.386Z,99.90
2023-01-03T05:39:50.397Z,99.90
2023-01-03T05:42:01.123Z,99.90
2023-01-03T05:44:03.360Z,99.90
2023-01-03T05:46:05.493Z,99.90
2023-01-03T05:48:08.670Z,99.90
2023-01-03T05:50:10.474Z,99.90
2023-01-03T05:52:12.155Z,99.90
2023-01-03T05:54:18.954Z,99.90
2023-01-03T05:56:20.858Z,99.90
2023-01-03T05:58:22.562Z,99.90
2023-01-03T06:00:24.287Z,99.90
2023-01-03T06:02:25.980Z,99.90
2023-01-03T06:04:27.791Z,99.90
2023-01-03T06:06:29.577Z,99.90
2023-01-03T06:08:31.357Z,99.90
2023-01-03T06:10:33.169Z,99.90
2023-01-03T06:12:35.337Z,99.90
2023-01-03T06:14:37.124Z,99.90
2023-01-03T06:16:57.287Z,99.90
2023-01-03T06:19:00.293Z,99.90
2023-01-03T06:21:05.925Z,99.90
2023-01-03T06:23:07.670Z,99.90
2023-01-03T06:25:10.391Z,99.90
2023-01-03T06:27:12.168Z,99.90
2023-01-03T06:29:13.874Z,99.90
2023-01-03T06:31:16.464Z,99.90
2023-01-03T06:33:18.221Z,99.90
2023-01-03T06:35:20.223Z,99.90
2023-01-03T06:37:21.944Z,99.90
2023-01-03T06:39:23.757Z,99.90
2023-01-03T06:41:25.684Z,99.90
2023-01-03T06:43:27.890Z,99.90
2023-01-03T06:45:48.498Z,99.90
2023-01-03T06:48:08.858Z,99.90
2023-01-03T06:50:31.636Z,99.90
2023-01-03T06:52:51.841Z,99.90
2023-01-03T06:54:54.019Z,99.90
2023-01-03T06:56:55.998Z,99.90
2023-01-03T06:58:57.645Z,99.90
2023-01-03T07:01:05.245Z,99.90
2023-01-03T07:03:11.433Z,99.90
2023-01-03T07:05:13.924Z,99.90
2023-01-03T07:07:15.841Z,99.90
2023-01-03T07:09:17.827Z,99.90
2023-01-03T07:11:19.565Z,99.90
2023-01-03T07:13:39.759Z,99.90
2023-01-03T07:15:45.403Z,99.90
2023-01-03T07:17:47.350Z,99.90
2023-01-03T07:19:49.107Z,99.90
2023-01-03T07:21:50.912Z,99.90
2023-01-03T07:23:54.303Z,99.90
2023-01-03T07:25:56.211Z,99.90
2023-01-03T07:28:05.387Z,99.90
2023-01-03T07:30:08.871Z,99.90
2023-01-03T07:32:10.618Z,99.90
2023-01-03T07:34:12.274Z,99.90
2023-01-03T07:36:15.471Z,99.90
2023-01-03T07:38:17.195Z,99.90
2023-01-03T07:40:19.133Z,99.90
2023-01-03T07:42:39.310Z,99.90
2023-01-03T07:44:41.241Z,99.90
2023-01-03T07:46:43.063Z,99.90
2023-01-03T07:48:46.874Z,99.90
2023-01-03T07:50:48.519Z,99.90
2023-01-03T07:52:50.251Z,99.90
2023-01-03T07:54:51.931Z,99.90
2023-01-03T07:56:53.765Z,99.90
2023-01-03T07:58:55.497Z,99.90
2023-01-03T08:01:06.387Z,99.90
2023-01-03T08:03:11.157Z,99.90
2023-01-03T08:05:13.448Z,99.90
2023-01-03T08:07:15.131Z,99.90
2023-01-03T08:09:35.694Z,99.90
2023-01-03T08:11:56.884Z,99.90
2023-01-03T08:13:59.169Z,99.90
2023-01-03T08:16:01.009Z,99.90
2023-01-03T08:18:04.070Z,99.90
2023-01-03T08:20:06.620Z,99.90
2023-01-03T08:22:08.308Z,99.90
2023-01-03T08:24:10.202Z,33.90
2023-01-03T08:26:14.212Z,44.30
2023-01-03T08:28:15.923Z,14.80
2023-01-03T08:30:17.854Z,1.00
2023-01-03T08:32:21.401Z,1.00
2023-01-03T08:34:29.786Z,1.00
2023-01-03T08:36:38.004Z,1.00
2023-01-03T08:38:46.909Z,1.00
2023-01-03T08:40:48.838Z,1.00
2023-01-03T08:42:50.614Z,1.00
2023-01-03T08:44:58.555Z,1.00
2023-01-03T08:47:06.923Z,1.00
2023-01-03T08:49:11.699Z,1.00
2023-01-03T08:51:13.616Z,1.00
2023-01-03T08:53:15.524Z,1.00
2023-01-03T08:55:17.343Z,1.00
2023-01-03T08:57:19.072Z,1.00
2023-01-03T08:59:21.053Z,1.00
2023-01-03T09:01:22.802Z,1.00
2023-01-03T09:03:24.741Z,1.00
2023-01-03T09:05:28.052Z,1.00
2023-01-03T09:07:29.730Z,1.00
2023-01-03T09:09:31.442Z,1.00
2023-01-03T09:11:33.390Z,1.00
2023-01-03T09:13:35.587Z,1.00
2023-01-03T09:15:37.427Z,1.00
2023-01-03T09:17:44.081Z,1.00
2023-01-03T09:19:45.793Z,1.00
2023-01-03T09:21:47.610Z,1.00
2023-01-03T09:23:49.434Z,1.00
2023-01-03T09:25:51.445Z,1.00
2023-01-03T09:27:53.261Z,1.00
2023-01-03T09:29:54.916Z,1.00
2023-01-03T09:31:56.628Z,1.00
2023-01-03T09:33:58.381Z,1.00
2023-01-03T09:36:00.108Z,1.00
2023-01-03T09:38:01.838Z,1.00
2023-01-03T09:40:04.633Z,1.00
2023-01-03T09:42:26.789Z,1.00
2023-01-03T09:44:29.474Z,1.00
2023-01-03T09:46:33.108Z,1.00
2023-01-03T09:48:38.041Z,1.00
2023-01-03T09:51:15.840Z,1.00
2023-01-03T09:53:23.383Z,1.00
2023-01-03T09:56:06.591Z,1.00
2023-01-03T09:58:33.811Z,1.00
2023-01-03T10:01:07.861Z,1.00
2023-01-03T10:03:37.318Z,1.00
2023-01-03T10:05:51.776Z,1.00
2023-01-03T10:08:12.107Z,1.00
2023-01-03T10:10:27.075Z,1.00
2023-01-03T10:12:33.611Z,99.90
2023-01-03T10:14:42.150Z,1.00
2023-01-03T10:16:59.284Z,1.00
2023-01-03T10:19:35.139Z,99.90
2023-01-03T10:21:42.270Z,1.00
2023-01-03T10:23:45.341Z,10.70
2023-01-03T10:25:47.383Z,99.90
2023-01-03T10:27:57.219Z,99.90
2023-01-03T10:30:07.041Z,99.90
2023-01-03T10:32:40.461Z,1.00
2023-01-03T10:34:42.172Z,99.90
2023-01-03T10:36:43.895Z,1.00
2023-01-03T10:38:52.563Z,99.90
2023-01-03T10:41:03.057Z,99.90
2023-01-03T10:43:18.372Z,99.90
2023-01-03T10:45:21.425Z,1.00
2023-01-03T10:47:26.301Z,99.90
2023-01-03T10:49:30.612Z,99.90
2023-01-03T10:51:43.204Z,99.90
2023-01-03T10:53:45.074Z,99.90
2023-01-03T10:55:52.147Z,99.90
2023-01-03T10:57:56.601Z,99.90
2023-01-03T10:59:58.420Z,1.00
2023-01-03T11:02:09.138Z,99.90
2023-01-03T11:04:19.873Z,99.90
2023-01-03T11:06:21.819Z,1.00
2023-01-03T11:08:37.582Z,1.00
2023-01-03T11:10:49.370Z,99.90
2023-01-03T11:12:51.062Z,31.10
2023-01-03T11:14:57.146Z,99.90
2023-01-03T11:17:04.076Z,1.00
2023-01-03T11:19:07.069Z,56.90
2023-01-03T11:21:12.669Z,24.20
2023-01-03T11:23:22.094Z,1.00
2023-01-03T11:25:51.553Z,1.00
2023-01-03T11:28:16.505Z,1.00
2023-01-03T11:30:44.235Z,1.00
2023-01-03T11:32:51.865Z,59.90
2023-01-03T11:35:23.399Z,1.00
2023-01-03T11:37:41.234Z,99.90
2023-01-03T11:40:01.337Z,99.90
2023-01-03T11:42:14.897Z,99.90
2023-01-03T11:44:27.746Z,1.00
2023-01-03T11:46:35.725Z,99.90
2023-01-03T11:48:40.205Z,1.00
2023-01-03T11:50:55.045Z,1.00
2023-01-03T11:53:04.823Z,1.00
2023-01-03T11:55:45.098Z,1.00
2023-01-03T11:58:02.429Z,99.90
2023-01-03T12:00:32.058Z,1.00
2023-01-03T12:03:01.178Z,1.00
2023-01-03T12:05:21.389Z,99.90
2023-01-03T12:07:48.599Z,1.00
2023-01-03T12:09:56.683Z,38.60
2023-01-03T12:12:13.113Z,99.90
2023-01-03T12:14:20.748Z,99.90
2023-01-03T12:16:32.370Z,1.00
2023-01-03T12:18:48.790Z,1.00
2023-01-03T12:21:05.335Z,99.90
2023-01-03T12:23:17.906Z,1.00
2023-01-03T12:25:19.617Z,1.00
2023-01-03T12:27:29.906Z,1.00
2023-01-03T12:30:02.575Z,1.00
2023-01-03T12:32:12.757Z,1.00
2023-01-03T12:34:34.877Z,99.90
2023-01-03T12:36:42.893Z,99.90
2023-01-03T12:39:08.436Z,1.00
2023-01-03T12:41:20.847Z,1.00
2023-01-03T12:43:46.867Z,1.00
2023-01-03T12:46:00.694Z,1.00
2023-01-03T12:48:37.607Z,1.00
2023-01-03T12:50:50.792Z,1.00
2023-01-03T12:53:03.830Z,1.00
2023-01-03T12:55:23.231Z,1.00
2023-01-03T12:57:45.131Z,1.00
2023-01-03T13:00:08.132Z,1.00
2023-01-03T13:02:44.094Z,77.80
2023-01-03T13:04:49.938Z,99.90
2023-01-03T13:07:24.247Z,99.90
2023-01-03T13:09:35.892Z,99.90
2023-01-03T13:11:42.343Z,99.90
2023-01-03T13:13:56.911Z,1.00
2023-01-03T13:15:58.631Z,99.90
2023-01-03T13:18:30.645Z,99.90
2023-01-03T13:20:36.304Z,1.00
2023-01-03T13:22:48.584Z,99.90
2023-01-03T13:24:52.391Z,1.00
2023-01-03T13:27:22.790Z,99.90
2023-01-03T13:29:33.653Z,99.90
2023-01-03T13:31:38.103Z,1.00
2023-01-03T13:34:15.994Z,99.90
2023-01-03T13:36:18.289Z,1.00
2023-01-03T13:38:32.031Z,1.00
2023-01-03T13:41:16.123Z,1.00
2023-01-03T13:43:08.007Z,1.00
2023-01-03T13:45:15.602Z,1.00
2023-01-03T13:47:35.396Z,1.00
2023-01-03T13:49:38.350Z,12.50
2023-01-03T13:51:40.030Z,1.00
2023-01-03T13:54:00.754Z,99.90
2023-01-03T13:56:22.195Z,1.00
2023-01-03T13:58:47.179Z,1.00
2023-01-03T14:00:48.963Z,99.90
2023-01-03T14:03:13.156Z,99.90
2023-01-03T14:05:54.056Z,34.80
2023-01-03T14:08:13.011Z,99.90
2023-01-03T14:10:59.525Z,1.00
2023-01-03T14:13:12.461Z,1.00
2023-01-03T14:15:25.533Z,99.90
2023-01-03T14:17:32.150Z,1.00
2023-01-03T14:19:40.499Z,1.00
2023-01-03T14:21:47.925Z,1.00
2023-01-03T14:23:59.662Z,99.90
2023-01-03T14:26:18.759Z,99.90
2023-01-03T14:28:25.799Z,99.90
2023-01-03T14:30:34.250Z,99.90
2023-01-03T14:32:37.183Z,99.90
2023-01-03T14:34:41.578Z,99.90
2023-01-03T14:36:48.405Z,99.90
2023-01-03T14:39:01.277Z,99.90
2023-01-03T14:41:03.458Z,99.90
2023-01-03T14:43:05.283Z,99.90
2023-01-03T14:45:08.809Z,99.90
2023-01-03T14:47:17.657Z,99.90
2023-01-03T14:49:43.782Z,99.90
2023-01-03T14:51:45.935Z,99.90
2023-01-03T14:53:47.843Z,1.00
2023-01-03T14:55:55.185Z,54.70
2023-01-03T14:57:58.321Z,99.90
2023-01-03T15:00:01.249Z,99.90
2023-01-03T15:02:03.038Z,99.90
2023-01-03T15:04:05.880Z,99.90
2023-01-03T15:06:16.947Z,99.90
2023-01-03T15:08:23.022Z,99.90
2023-01-03T15:10:34.044Z,99.90
2023-01-03T15:12:40.012Z,99.90
2023-01-03T15:14:41.823Z,99.90
2023-01-03T15:16:43.539Z,99.90
2023-01-03T15:18:46.862Z,99.90
2023-01-03T15:20:51.352Z,99.90
2023-01-03T15:22:53.335Z,1.00
2023-01-03T15:25:04.840Z,1.00
2023-01-03T15:27:38.449Z,1.00
2023-01-03T15:29:44.769Z,1.00
2023-01-03T15:31:55.655Z,1.00
2023-01-03T15:34:13.231Z,1.00
2023-01-03T15:36:19.156Z,1.00
2023-01-03T15:38:28.749Z,1.00
2023-01-03T15:40:31.794Z,1.00
2023-01-03T15:42:58.199Z,1.00
2023-01-03T15:45:00.589Z,1.00
2023-01-03T15:47:06.119Z,1.00
2023-01-03T15:49:10.490Z,1.00
2023-01-03T15:51:12.339Z,1.00
2023-01-03T15:53:30.402Z,1.00
2023-01-03T15:55:32.303Z,1.00
2023-01-03T15:57:34.382Z,1.00
2023-01-03T15:59:42.978Z,1.00
2023-01-03T16:01:45.268Z,1.00
2023-01-03T16:03:48.523Z,1.00
2023-01-03T16:05:50.452Z,1.00
2023-01-03T16:07:52.221Z,1.00
2023-01-03T16:09:54.045Z,1.00
2023-01-03T16:11:58.697Z,1.00
2023-01-03T16:14:03.554Z,1.00
2023-01-03T16:16:07.252Z,1.00
2023-01-03T16:18:14.121Z,1.00
2023-01-03T16:20:17.962Z,1.00
2023-01-03T16:22:37.039Z,1.00
2023-01-03T16:24:39.835Z,1.00
2023-01-03T16:26:41.617Z,1.00
2023-01-03T16:28:43.566Z,1.00
2023-01-03T16:30:45.770Z,1.00
2023-01-03T16:32:47.632Z,1.00
2023-01-03T16:34:50.616Z,1.00
2023-01-03T16:36:53.470Z,1.00
2023-01-03T16:38:55.220Z,1.00
2023-01-03T16:40:57.207Z,1.00
2023-01-03T16:42:58.944Z,1.00
2023-01-03T16:45:00.679Z,1.00
2023-01-03T16:47:04.241Z,1.00
2023-01-03T16:49:07.205Z,1.00
2023-01-03T16:51:18.185Z,1.00
2023-01-03T16:53:27.575Z,1.00
2023-01-03T16:55:33.316Z,1.00
2023-01-03T16:57:34.996Z,9.70
2023-01-03T16:59:36.828Z,9.20
2023-01-03T17:01:38.530Z,1.00
2023-01-03T17:03:42.257Z,1.00
2023-01-03T17:05:44.796Z,1.00
2023-01-03T17:07:48.874Z,1.30
2023-01-03T17:09:51.465Z,6.80
2023-01-03T17:11:53.146Z,12.00
2023-01-03T17:14:01.831Z,4.80
2023-01-03T17:16:05.903Z,1.00
2023-01-03T17:18:17.725Z,1.00
2023-01-03T17:20:21.340Z,1.00
2023-01-03T17:22:23.518Z,1.00
2023-01-03T17:24:27.242Z,1.00
2023-01-03T17:26:31.834Z,1.00
2023-01-03T17:28:35.364Z,1.00
2023-01-03T17:30:38.145Z,6.30
2023-01-03T17:32:39.930Z,12.90
2023-01-03T17:34:41.773Z,24.00
2023-01-03T17:36:44.398Z,24.40
2023-01-03T17:38:46.150Z,35.40
2023-01-03T17:40:49.257Z,57.30
2023-01-03T17:42:55.472Z,57.20
2023-01-03T17:45:15.716Z,59.80
2023-01-03T17:47:35.962Z,62.00
2023-01-03T17:49:37.825Z,73.30
2023-01-03T17:51:39.550Z,88.80
2023-01-03T17:53:42.758Z,93.40
2023-01-03T17:55:49.309Z,99.90
2023-01-03T17:57:51.227Z,99.90
2023-01-03T17:59:54.133Z,99.90
2023-01-03T18:01:56.418Z,99.90
2023-01-03T18:03:58.417Z,99.90
2023-01-03T18:06:05.124Z,99.90
2023-01-03T18:08:13.526Z,99.90
2023-01-03T18:10:22.452Z,99.90
2023-01-03T18:12:25.952Z,99.90
2023-01-03T18:14:27.869Z,99.90
2023-01-03T18:16:30.162Z,99.90
2023-01-03T18:18:33.061Z,99.90
2023-01-03T18:20:34.764Z,99.90
2023-01-03T18:22:36.819Z,99.90
2023-01-03T18:24:38.641Z,88.80
2023-01-03T18:26:43.673Z,82.70
2023-01-03T18:28:45.596Z,83.00
2023-01-03T18:30:47.299Z,71.70
2023-01-03T18:32:49.194Z,82.30
2023-01-03T18:34:51.191Z,72.90
2023-01-03T18:36:53.461Z,78.70
2023-01-03T18:39:04.190Z,89.40
2023-01-03T18:41:06.442Z,94.60
2023-01-03T18:43:14.266Z,99.90
2023-01-03T18:45:16.224Z,99.50
2023-01-03T18:47:18.066Z,99.10
2023-01-03T18:49:20.068Z,99.30
2023-01-03T18:51:25.289Z,99.90
2023-01-03T18:53:31.482Z,99.90
2023-01-03T18:55:35.450Z,99.90
2023-01-03T18:57:37.427Z,99.90
2023-01-03T18:59:39.190Z,99.90
2023-01-03T19:01:40.905Z,99.90
2023-01-03T19:03:43.615Z,99.90
2023-01-03T19:05:45.313Z,99.90
2023-01-03T19:07:49.387Z,99.90
2023-01-03T19:09:51.658Z,99.90
2023-01-03T19:11:54.276Z,99.90
2023-01-03T19:13:59.897Z,99.90
2023-01-03T19:16:01.713Z,99.90
2023-01-03T19:18:03.981Z,99.90
2023-01-03T19:20:06.896Z,99.90
2023-01-03T19:22:29.204Z,99.90
2023-01-03T19:24:39.033Z,99.90
2023-01-03T19:26:44.623Z,99.90
2023-01-03T19:28:46.345Z,99.90
2023-01-03T19:30:48.405Z,99.90
2023-01-03T19:32:55.428Z,99.90
2023-01-03T19:34:57.494Z,99.90
2023-01-03T19:36:59.217Z,99.90
2023-01-03T19:39:01.232Z,99.90
2023-01-03T19:41:03.122Z,99.90
2023-01-03T19:43:05.740Z,99.90
2023-01-03T19:45:26.547Z,99.90
2023-01-03T19:47:28.388Z,99.90
2023-01-03T19:49:30.191Z,99.90
2023-01-03T19:51:31.919Z,99.90
2023-01-03T19:53:33.574Z,99.90
2023-01-03T19:55:39.476Z,99.90
2023-01-03T19:57:43.835Z,99.90
2023-01-03T19:59:49.484Z,99.90
2023-01-03T20:02:23.358Z,99.90
2023-01-03T20:04:13.727Z,99.90
2023-01-03T20:06:18.170Z,99.90
2023-01-03T20:08:20.135Z,99.90
2023-01-03T20:10:26.494Z,99.90
2023-01-03T20:12:28.208Z,99.90
2023-01-03T20:14:30.231Z,99.90
2023-01-03T20:16:31.944Z,99.90
2023-01-03T20:18:36.518Z,99.90
2023-01-03T20:20:38.847Z,99.90
2023-01-03T20:25:06.294Z,99.90
2023-01-03T20:27:13.665Z,99.90
2023-01-03T20:29:15.405Z,99.90
2023-01-03T20:31:20.613Z,99.90
2023-01-03T20:33:23.221Z,99.90
2023-01-03T20:37:54.786Z,99.90
2023-01-03T20:39:56.503Z,99.90
2023-01-03T20:42:03.555Z,99.90
2023-01-03T20:44:08.970Z,99.90
2023-01-03T20:46:17.657Z,99.90
2023-01-03T20:48:25.526Z,99.90
2023-01-03T20:50:29.205Z,99.90
2023-01-03T20:52:31.077Z,99.90
2023-01-03T20:54:32.906Z,99.90
2023-01-03T20:56:34.774Z,99.90
2023-01-03T20:58:36.620Z,99.90
2023-01-03T21:00:38.844Z,99.90
2023-01-03T21:02:41.069Z,99.90
2023-01-03T21:04:42.925Z,99.90
2023-01-03T21:06:45.361Z,99.90
2023-01-03T21:08:56.794Z,99.90
2023-01-03T21:10:59.103Z,99.90
2023-01-03T21:13:00.830Z,99.90
2023-01-03T21:15:02.530Z,99.90
2023-01-03T21:17:05.214Z,99.90
2023-01-03T21:19:16.637Z,99.90
2023-01-03T21:21:21.087Z,99.90
2023-01-03T21:23:23.802Z,99.90
2023-01-03T21:25:27.024Z,99.90
2023-01-03T21:27:28.703Z,99.90
2023-01-03T21:29:30.643Z,99.90
2023-01-03T21:31:33.965Z,99.90
2023-01-03T21:33:35.870Z,99.90
2023-01-03T21:35:40.960Z,99.90
2023-01-03T21:37:43.205Z,99.90
2023-01-03T21:39:44.936Z,99.90
2023-01-03T21:42:05.294Z,99.90
2023-01-03T21:44:07.807Z,99.90
2023-01-03T21:46:09.570Z,99.90
2023-01-03T21:48:14.025Z,99.90
2023-01-03T21:50:15.787Z,99.90
2023-01-03T21:52:17.515Z,99.90
2023-01-03T21:54:19.354Z,99.90
2023-01-03T21:56:25.587Z,99.90
2023-01-03T21:58:27.461Z,99.90
2023-01-03T22:00:29.195Z,99.90
2023-01-03T22:02:53.348Z,99.90
2023-01-03T22:04:57.818Z,99.90
2023-01-03T22:07:02.606Z,99.90
2023-01-03T22:09:06.468Z,99.90
2023-01-03T22:11:08.345Z,99.90
2023-01-03T22:13:10.751Z,99.90
2023-01-03T22:15:12.975Z,99.90
2023-01-03T22:17:15.638Z,99.90
2023-01-03T22:19:17.577Z,99.90
2023-01-03T22:21:20.561Z,99.90
2023-01-03T22:23:23.002Z,99.90
2023-01-03T22:25:25.016Z,99.90
2023-01-03T22:27:26.917Z,99.90
2023-01-03T22:29:28.572Z,99.90
2023-01-03T22:31:30.457Z,99.90
2023-01-03T22:33:33.277Z,99.90
2023-01-03T22:35:35.030Z,99.90
2023-01-03T22:37:37.095Z,99.90
2023-01-03T22:39:38.989Z,99.90
2023-01-03T22:41:40.798Z,99.90
2023-01-03T22:43:44.253Z,99.90
2023-01-03T22:45:45.966Z,99.90
2023-01-03T22:47:47.760Z,99.90
2023-01-03T22:49:49.717Z,99.90
2023-01-03T22:51:51.447Z,99.90
2023-01-03T22:53:53.196Z,99.90
2023-01-03T22:55:55.029Z,99.90
2023-01-03T22:57:57.184Z,99.90
2023-01-03T22:59:58.897Z,99.90
2023-01-03T23:02:00.830Z,99.90
2023-01-03T23:04:03.724Z,99.90
2023-01-03T23:06:07.090Z,99.90
2023-01-03T23:08:08.838Z,99.90
2023-01-03T23:10:13.479Z,99.90
2023-01-03T23:12:33.904Z,99.90
2023-01-03T23:14:35.734Z,99.90
2023-01-03T23:16:37.748Z,99.90
2023-01-03T23:18:39.891Z,99.90
2023-01-03T23:20:48.939Z,99.90
2023-01-03T23:22:57.418Z,99.90
2023-01-03T23:25:01.222Z,99.90
2023-01-03T23:27:03.093Z,99.90
2023-01-03T23:29:04.805Z,99.90
2023-01-03T23:31:06.559Z,99.90
2023-01-03T23:33:08.758Z,99.90
2023-01-03T23:35:10.628Z,99.90
2023-01-03T23:37:12.402Z,99.90
2023-01-03T23:39:16.459Z,99.90
2023-01-03T23:41:19.691Z,99.90
2023-01-03T23:43:21.373Z,99.90
2023-01-03T23:45:23.091Z,99.90
2023-01-03T23:47:24.812Z,99.90
2023-01-03T23:49:26.791Z,99.90
2023-01-03T23:51:28.644Z,99.90
2023-01-03T23:53:30.458Z,99.90
2023-01-03T23:55:32.203Z,99.90
2023-01-03T23:57:34.067Z,99.90
2023-01-03T23:59:36.095Z,99.90
